TUI7LG EDDM-LOWI
Flight info
| Callsign | TUI7LG |
|---|---|
| Flight time | N/A |
| Altitude | 15000 |
| Route | TURBU7S TURBU Y107 RTT RTT1B |
| Aircraft | B738/M-SDE2E3FGHIRWXY/LB1 |
Departure
| Time | 2026-05-06 19:00 |
|---|---|
| Airport | Munich Airport (EDDM) |
Arrival
| Time | N/A |
|---|---|
| Airport | Innsbruck Airport (LOWI) |
| Time | Latitude | Longitude | Altitude | Speed | Heading |
|---|---|---|---|---|---|
| 2026-05-06 18:32 | 48.35005 | 11.77751 | 1471 ft | 0 kts | 263° |
| 2026-05-06 18:46 | 48.35005 | 11.77757 | 1471 ft | 2 kts | 264° |
| 2026-05-06 18:46 | 48.35007 | 11.77779 | 1470 ft | 2 kts | 264° |
| 2026-05-06 18:47 | 48.35009 | 11.77802 | 1470 ft | 2 kts | 263° |
| 2026-05-06 18:47 | 48.35010 | 11.77820 | 1469 ft | 1 kts | 264° |
| 2026-05-06 18:47 | 48.35014 | 11.77841 | 1469 ft | 2 kts | 238° |
| 2026-05-06 18:47 | 48.35023 | 11.77858 | 1469 ft | 2 kts | 218° |
| 2026-05-06 18:48 | 48.35036 | 11.77869 | 1469 ft | 2 kts | 197° |
| 2026-05-06 18:48 | 48.35049 | 11.77872 | 1468 ft | 0 kts | 178° |
| 2026-05-06 18:48 | 48.35055 | 11.77871 | 1468 ft | 1 kts | 175° |
| 2026-05-06 18:48 | 48.35056 | 11.77871 | 1468 ft | 0 kts | 175° |
| 2026-05-06 18:52 | 48.35054 | 11.77871 | 1468 ft | 2 kts | 175° |
| 2026-05-06 18:52 | 48.35026 | 11.77875 | 1468 ft | 6 kts | 175° |
| 2026-05-06 18:52 | 48.34972 | 11.77883 | 1469 ft | 9 kts | 174° |
| 2026-05-06 18:52 | 48.34897 | 11.77894 | 1469 ft | 12 kts | 182° |
| 2026-05-06 18:53 | 48.34817 | 11.77877 | 1469 ft | 9 kts | 183° |
| 2026-05-06 18:53 | 48.34769 | 11.77884 | 1469 ft | 4 kts | 173° |
| 2026-05-06 18:53 | 48.34723 | 11.77892 | 1469 ft | 8 kts | 174° |
| 2026-05-06 18:53 | 48.34672 | 11.77938 | 1469 ft | 9 kts | 114° |
| 2026-05-06 18:54 | 48.34676 | 11.78054 | 1469 ft | 12 kts | 84° |
| 2026-05-06 18:54 | 48.34687 | 11.78211 | 1469 ft | 16 kts | 84° |
| 2026-05-06 18:54 | 48.34702 | 11.78397 | 1470 ft | 19 kts | 83° |
| 2026-05-06 18:54 | 48.34718 | 11.78605 | 1472 ft | 21 kts | 84° |
| 2026-05-06 18:55 | 48.34736 | 11.78839 | 1474 ft | 23 kts | 84° |
| 2026-05-06 18:55 | 48.34756 | 11.79098 | 1472 ft | 24 kts | 83° |
| 2026-05-06 18:55 | 48.34775 | 11.79343 | 1469 ft | 21 kts | 83° |
| 2026-05-06 18:55 | 48.34792 | 11.79556 | 1466 ft | 19 kts | 83° |
| 2026-05-06 18:56 | 48.34776 | 11.79701 | 1466 ft | 10 kts | 155° |
| 2026-05-06 18:56 | 48.34713 | 11.79702 | 1466 ft | 7 kts | 205° |
| 2026-05-06 18:56 | 48.34685 | 11.79663 | 1466 ft | 4 kts | 231° |
| 2026-05-06 18:56 | 48.34653 | 11.79599 | 1467 ft | 10 kts | 234° |
| 2026-05-06 18:57 | 48.34602 | 11.79492 | 1469 ft | 14 kts | 233° |
| 2026-05-06 18:57 | 48.34551 | 11.79391 | 1470 ft | 9 kts | 233° |
| 2026-05-06 18:57 | 48.34524 | 11.79336 | 1472 ft | 3 kts | 234° |
| 2026-05-06 18:57 | 48.34513 | 11.79313 | 1472 ft | 4 kts | 234° |
| 2026-05-06 18:58 | 48.34473 | 11.79229 | 1472 ft | 15 kts | 234° |
| 2026-05-06 18:58 | 48.34396 | 11.79112 | 1472 ft | 13 kts | 210° |
| 2026-05-06 18:58 | 48.34371 | 11.79052 | 1474 ft | 0 kts | 263° |
| 2026-05-06 18:59 | 48.34370 | 11.79051 | 1474 ft | 0 kts | 263° |
| 2026-05-06 18:59 | 48.34365 | 11.78987 | 1475 ft | 23 kts | 264° |
| 2026-05-06 19:00 | 48.34318 | 11.78355 | 1476 ft | 97 kts | 264° |
| 2026-05-06 19:00 | 48.34213 | 11.77000 | 1483 ft | 158 kts | 264° |
| 2026-05-06 19:00 | 48.34100 | 11.75289 | 2024 ft | 171 kts | 265° |
| 2026-05-06 19:00 | 48.34036 | 11.74092 | 2407 ft | 182 kts | 263° |
| 2026-05-06 19:01 | 48.33679 | 11.71581 | 3195 ft | 185 kts | 235° |
| 2026-05-06 19:01 | 48.32634 | 11.70490 | 3566 ft | 202 kts | 197° |
| 2026-05-06 19:01 | 48.31178 | 11.70578 | 3904 ft | 220 kts | 175° |
| 2026-05-06 19:01 | 48.29630 | 11.70852 | 4328 ft | 227 kts | 181° |
| 2026-05-06 19:02 | 48.28144 | 11.71322 | 5188 ft | 219 kts | 159° |
| 2026-05-06 19:02 | 48.26849 | 11.72682 | 5495 ft | 238 kts | 147° |
| 2026-05-06 19:02 | 48.25460 | 11.74185 | 5722 ft | 258 kts | 150° |
| 2026-05-06 19:02 | 48.23924 | 11.75704 | 6227 ft | 267 kts | 152° |
| 2026-05-06 19:03 | 48.22357 | 11.77201 | 6820 ft | 273 kts | 153° |
| 2026-05-06 19:03 | 48.20762 | 11.78730 | 7590 ft | 274 kts | 149° |
| 2026-05-06 19:03 | 48.19203 | 11.80387 | 8231 ft | 279 kts | 149° |
| 2026-05-06 19:03 | 48.17557 | 11.81856 | 8890 ft | 280 kts | 161° |
| 2026-05-06 19:04 | 48.15710 | 11.82851 | 9519 ft | 283 kts | 167° |
| 2026-05-06 19:04 | 48.13891 | 11.83731 | 10353 ft | 282 kts | 166° |
| 2026-05-06 19:04 | 48.11944 | 11.84692 | 10484 ft | 308 kts | 166° |
| 2026-05-06 19:04 | 48.09834 | 11.85737 | 10756 ft | 327 kts | 166° |
| 2026-05-06 19:05 | 48.07623 | 11.86831 | 10872 ft | 350 kts | 165° |
| 2026-05-06 19:05 | 48.05274 | 11.87996 | 11048 ft | 369 kts | 165° |
| 2026-05-06 19:05 | 48.02832 | 11.89211 | 11544 ft | 377 kts | 165° |
| 2026-05-06 19:05 | 48.00334 | 11.90455 | 12107 ft | 383 kts | 165° |
| 2026-05-06 19:06 | 47.97784 | 11.91721 | 12724 ft | 387 kts | 165° |
| 2026-05-06 19:06 | 47.95243 | 11.92984 | 13397 ft | 390 kts | 165° |
| 2026-05-06 19:06 | 47.92661 | 11.94208 | 13922 ft | 394 kts | 169° |
| 2026-05-06 19:06 | 47.89987 | 11.94809 | 14596 ft | 390 kts | 181° |
| 2026-05-06 19:07 | 47.87285 | 11.94833 | 14836 ft | 392 kts | 185° |
| 2026-05-06 19:07 | 47.84546 | 11.94760 | 14825 ft | 393 kts | 185° |
| 2026-05-06 19:07 | 47.81834 | 11.94711 | 14830 ft | 391 kts | 185° |
| 2026-05-06 19:07 | 47.79133 | 11.94664 | 14834 ft | 391 kts | 185° |
| 2026-05-06 19:08 | 47.76411 | 11.94613 | 14712 ft | 393 kts | 185° |
| 2026-05-06 19:08 | 47.73677 | 11.94561 | 14464 ft | 391 kts | 184° |
| 2026-05-06 19:08 | 47.71029 | 11.94515 | 14230 ft | 384 kts | 184° |
| 2026-05-06 19:08 | 47.68404 | 11.94474 | 13986 ft | 367 kts | 184° |
| 2026-05-06 19:09 | 47.65918 | 11.94435 | 13747 ft | 350 kts | 184° |
| 2026-05-06 19:09 | 47.63547 | 11.94394 | 13510 ft | 336 kts | 184° |
| 2026-05-06 19:09 | 47.61266 | 11.94305 | 13269 ft | 322 kts | 190° |
| 2026-05-06 19:09 | 47.59186 | 11.93427 | 13028 ft | 304 kts | 211° |
| 2026-05-06 19:10 | 47.57626 | 11.91474 | 12852 ft | 288 kts | 235° |
| 2026-05-06 19:10 | 47.56872 | 11.88878 | 12831 ft | 275 kts | 259° |
| 2026-05-06 19:10 | 47.56812 | 11.86000 | 12851 ft | 281 kts | 269° |
| 2026-05-06 19:10 | 47.56874 | 11.83111 | 12839 ft | 283 kts | 268° |
| 2026-05-06 19:11 | 47.56841 | 11.80189 | 12831 ft | 282 kts | 265° |
| 2026-05-06 19:11 | 47.56778 | 11.77313 | 12830 ft | 282 kts | 265° |
| 2026-05-06 19:11 | 47.56719 | 11.74418 | 12829 ft | 282 kts | 265° |
| 2026-05-06 19:11 | 47.56659 | 11.71518 | 12830 ft | 282 kts | 265° |
| 2026-05-06 19:12 | 47.56598 | 11.68588 | 12830 ft | 282 kts | 265° |
| 2026-05-06 19:12 | 47.56537 | 11.65675 | 12830 ft | 282 kts | 265° |
| 2026-05-06 19:12 | 47.56477 | 11.62797 | 12830 ft | 282 kts | 265° |
| 2026-05-06 19:12 | 47.56416 | 11.59870 | 12830 ft | 282 kts | 265° |
| 2026-05-06 19:13 | 47.56356 | 11.56978 | 12831 ft | 282 kts | 265° |
| 2026-05-06 19:13 | 47.56295 | 11.54073 | 12830 ft | 282 kts | 266° |
| 2026-05-06 19:13 | 47.56233 | 11.51170 | 12831 ft | 282 kts | 266° |
| 2026-05-06 19:13 | 47.56172 | 11.48277 | 12832 ft | 282 kts | 266° |
| 2026-05-06 19:14 | 47.56110 | 11.45357 | 12833 ft | 282 kts | 266° |
| 2026-05-06 19:14 | 47.56049 | 11.42490 | 12835 ft | 282 kts | 266° |
| 2026-05-06 19:14 | 47.55987 | 11.39583 | 12836 ft | 282 kts | 266° |
| 2026-05-06 19:14 | 47.55926 | 11.36695 | 12838 ft | 282 kts | 266° |
| 2026-05-06 19:15 | 47.55864 | 11.33790 | 12839 ft | 282 kts | 265° |
| 2026-05-06 19:15 | 47.55803 | 11.30938 | 12831 ft | 268 kts | 265° |
| 2026-05-06 19:15 | 47.55751 | 11.28287 | 12836 ft | 252 kts | 265° |
| 2026-05-06 19:15 | 47.55706 | 11.25738 | 12842 ft | 242 kts | 265° |
| 2026-05-06 19:16 | 47.55663 | 11.23228 | 12848 ft | 245 kts | 265° |
| 2026-05-06 19:16 | 47.55619 | 11.20718 | 12845 ft | 246 kts | 265° |
| 2026-05-06 19:16 | 47.55574 | 11.18195 | 12844 ft | 246 kts | 265° |
| 2026-05-06 19:16 | 47.55528 | 11.15664 | 12843 ft | 246 kts | 265° |
| 2026-05-06 19:17 | 47.55483 | 11.13108 | 12843 ft | 246 kts | 265° |
| 2026-05-06 19:17 | 47.55438 | 11.10594 | 12843 ft | 246 kts | 265° |
| 2026-05-06 19:17 | 47.55392 | 11.08075 | 12842 ft | 246 kts | 265° |
| 2026-05-06 19:17 | 47.55346 | 11.05521 | 12842 ft | 246 kts | 265° |
| 2026-05-06 19:18 | 47.55301 | 11.03014 | 12842 ft | 246 kts | 265° |
| 2026-05-06 19:18 | 47.55252 | 11.00476 | 12842 ft | 244 kts | 265° |
| 2026-05-06 19:18 | 47.55197 | 10.97974 | 12842 ft | 241 kts | 265° |
| 2026-05-06 19:18 | 47.55135 | 10.95527 | 12841 ft | 239 kts | 265° |
| 2026-05-06 19:19 | 47.55067 | 10.93068 | 12841 ft | 237 kts | 266° |
| 2026-05-06 19:19 | 47.55015 | 10.90649 | 12841 ft | 236 kts | 266° |
| 2026-05-06 19:19 | 47.54952 | 10.88238 | 12841 ft | 234 kts | 266° |
| 2026-05-06 19:19 | 47.54898 | 10.85837 | 12841 ft | 232 kts | 268° |
| 2026-05-06 19:20 | 47.54839 | 10.83435 | 12840 ft | 231 kts | 268° |
| 2026-05-06 19:20 | 47.54763 | 10.81083 | 12840 ft | 230 kts | 268° |
| 2026-05-06 19:20 | 47.54672 | 10.78743 | 12840 ft | 229 kts | 267° |
| 2026-05-06 19:20 | 47.54436 | 10.76426 | 12836 ft | 231 kts | 252° |
| 2026-05-06 19:21 | 47.53502 | 10.74449 | 12845 ft | 241 kts | 225° |
| 2026-05-06 19:21 | 47.52001 | 10.73239 | 12865 ft | 262 kts | 207° |
| 2026-05-06 19:21 | 47.50122 | 10.72597 | 12857 ft | 291 kts | 196° |
| 2026-05-06 19:21 | 47.48193 | 10.72080 | 12808 ft | 270 kts | 201° |
| 2026-05-06 19:22 | 47.46398 | 10.71485 | 12573 ft | 259 kts | 197° |
| 2026-05-06 19:22 | 47.44670 | 10.71106 | 12318 ft | 250 kts | 205° |
| 2026-05-06 19:22 | 47.43215 | 10.69955 | 12322 ft | 223 kts | 225° |
| 2026-05-06 19:22 | 47.42040 | 10.68679 | 12350 ft | 200 kts | 222° |
| 2026-05-06 19:23 | 47.40892 | 10.67630 | 12348 ft | 195 kts | 212° |
| 2026-05-06 19:23 | 47.39482 | 10.67396 | 12381 ft | 221 kts | 176° |
| 2026-05-06 19:23 | 47.38105 | 10.68563 | 12373 ft | 242 kts | 144° |
| 2026-05-06 19:23 | 47.36877 | 10.70289 | 12361 ft | 243 kts | 145° |
| 2026-05-06 19:24 | 47.35662 | 10.71894 | 12326 ft | 225 kts | 147° |
| 2026-05-06 19:24 | 47.34525 | 10.73366 | 12293 ft | 220 kts | 148° |
| 2026-05-06 19:24 | 47.33334 | 10.74864 | 11866 ft | 226 kts | 147° |
| 2026-05-06 19:24 | 47.32165 | 10.76363 | 11493 ft | 215 kts | 148° |
| 2026-05-06 19:25 | 47.31426 | 10.77308 | 11227 ft | 210 kts | 148° |
| 2026-05-06 19:25 | 47.30014 | 10.79161 | 10696 ft | 206 kts | 140° |
| 2026-05-06 19:25 | 47.29430 | 10.80920 | 10300 ft | 219 kts | 103° |
| 2026-05-06 19:25 | 47.29499 | 10.83184 | 9813 ft | 222 kts | 87° |
| 2026-05-06 19:26 | 47.29653 | 10.85422 | 9327 ft | 220 kts | 91° |
| 2026-05-06 19:26 | 47.29749 | 10.87578 | 9177 ft | 198 kts | 92° |
| 2026-05-06 19:26 | 47.29833 | 10.89509 | 9071 ft | 187 kts | 93° |
| 2026-05-06 19:26 | 47.29913 | 10.91440 | 8855 ft | 186 kts | 94° |
| 2026-05-06 19:27 | 47.29985 | 10.93311 | 8626 ft | 182 kts | 95° |
| 2026-05-06 19:27 | 47.30045 | 10.95185 | 8438 ft | 186 kts | 95° |
| 2026-05-06 19:27 | 47.30129 | 10.97045 | 8223 ft | 179 kts | 94° |
| 2026-05-06 19:27 | 47.30195 | 10.98864 | 7848 ft | 172 kts | 94° |
| 2026-05-06 19:28 | 47.30267 | 11.00542 | 7581 ft | 163 kts | 95° |
| 2026-05-06 19:28 | 47.30313 | 11.02283 | 7351 ft | 174 kts | 96° |
| 2026-05-06 19:28 | 47.30386 | 11.04062 | 7010 ft | 171 kts | 95° |
| 2026-05-06 19:28 | 47.30457 | 11.05734 | 6697 ft | 169 kts | 94° |
| 2026-05-06 19:29 | 47.30522 | 11.07475 | 6440 ft | 160 kts | 94° |
| 2026-05-06 19:29 | 47.30515 | 11.09058 | 6136 ft | 150 kts | 109° |
| 2026-05-06 19:29 | 47.30171 | 11.10495 | 5803 ft | 150 kts | 123° |
| 2026-05-06 19:29 | 47.29691 | 11.11832 | 5733 ft | 144 kts | 126° |
| 2026-05-06 19:30 | 47.29261 | 11.13147 | 5705 ft | 147 kts | 118° |
| 2026-05-06 19:30 | 47.28869 | 11.14578 | 5693 ft | 152 kts | 120° |
| 2026-05-06 19:30 | 47.28441 | 11.16049 | 5661 ft | 157 kts | 121° |
| 2026-05-06 19:30 | 47.27993 | 11.17530 | 5617 ft | 158 kts | 121° |
| 2026-05-06 19:31 | 47.27552 | 11.19017 | 5519 ft | 159 kts | 121° |
| 2026-05-06 19:31 | 47.27082 | 11.20465 | 5168 ft | 158 kts | 123° |
| 2026-05-06 19:31 | 47.26261 | 11.23260 | 4483 ft | 135 kts | 116° |
| 2026-05-06 19:32 | 47.25957 | 11.24587 | 3935 ft | 144 kts | 115° |
| 2026-05-06 19:32 | 47.25644 | 11.25885 | 3559 ft | 136 kts | 117° |
| 2026-05-06 19:32 | 47.25497 | 11.27315 | 3017 ft | 148 kts | 99° |
| 2026-05-06 19:32 | 47.25530 | 11.28800 | 2672 ft | 142 kts | 95° |
| 2026-05-06 19:33 | 47.25605 | 11.30210 | 2418 ft | 140 kts | 90° |
| 2026-05-06 19:33 | 47.25755 | 11.31685 | 2254 ft | 144 kts | 90° |
| 2026-05-06 19:33 | 47.25893 | 11.33135 | 1977 ft | 142 kts | 90° |
| 2026-05-06 19:33 | 47.26025 | 11.34412 | 1906 ft | 119 kts | 83° |
| 2026-05-06 19:34 | 47.26192 | 11.35795 | 2195 ft | 141 kts | 88° |
| 2026-05-06 19:34 | 47.26369 | 11.37177 | 2776 ft | 139 kts | 87° |
| 2026-05-06 19:34 | 47.26533 | 11.38523 | 3255 ft | 131 kts | 92° |
| 2026-05-06 19:34 | 47.26611 | 11.39900 | 3490 ft | 146 kts | 94° |
| 2026-05-06 19:35 | 47.26710 | 11.41527 | 3724 ft | 174 kts | 87° |
| 2026-05-06 19:35 | 47.26942 | 11.43314 | 4097 ft | 199 kts | 85° |
| 2026-05-06 19:35 | 47.27231 | 11.45319 | 4611 ft | 219 kts | 80° |
| 2026-05-06 19:35 | 47.27837 | 11.47444 | 5070 ft | 246 kts | 66° |
| 2026-05-06 19:36 | 47.28635 | 11.49564 | 6286 ft | 232 kts | 67° |
| 2026-05-06 19:36 | 47.29331 | 11.51594 | 7303 ft | 225 kts | 69° |
| 2026-05-06 19:36 | 47.29998 | 11.53686 | 8056 ft | 229 kts | 70° |
| 2026-05-06 19:36 | 47.30654 | 11.55730 | 8827 ft | 231 kts | 68° |
| 2026-05-06 19:37 | 47.31340 | 11.57865 | 9177 ft | 253 kts | 67° |
| 2026-05-06 19:37 | 47.32132 | 11.60285 | 9525 ft | 271 kts | 67° |
| 2026-05-06 19:37 | 47.32984 | 11.62917 | 9512 ft | 301 kts | 67° |
| 2026-05-06 19:37 | 47.33904 | 11.65771 | 9576 ft | 310 kts | 67° |
| 2026-05-06 19:38 | 47.34825 | 11.68601 | 9954 ft | 309 kts | 67° |
| 2026-05-06 19:38 | 47.35755 | 11.71470 | 10326 ft | 313 kts | 67° |
| 2026-05-06 19:38 | 47.36700 | 11.74393 | 10701 ft | 317 kts | 67° |